sensor_id;sensor_type;location;lat;lon;timestamp;temperature;humidity
26964;DHT22;14521;48.148;-1.656;2023-07-20T00:02:33;23.60;80.60
26964;DHT22;14521;48.148;-1.656;2023-07-20T00:05:56;23.60;80.60
26964;DHT22;14521;48.148;-1.656;2023-07-20T00:09:18;23.60;80.50
26964;DHT22;14521;48.148;-1.656;2023-07-20T00:12:40;23.60;80.50
26964;DHT22;14521;48.148;-1.656;2023-07-20T00:16:03;23.60;80.70
26964;DHT22;14521;48.148;-1.656;2023-07-20T00:19:26;23.60;80.80
26964;DHT22;14521;48.148;-1.656;2023-07-20T00:22:48;23.60;80.70
26964;DHT22;14521;48.148;-1.656;2023-07-20T00:26:13;23.60;80.80
26964;DHT22;14521;48.148;-1.656;2023-07-20T00:29:35;23.50;80.70
26964;DHT22;14521;48.148;-1.656;2023-07-20T00:32:57;23.50;80.60
26964;DHT22;14521;48.148;-1.656;2023-07-20T00:36:20;23.50;80.80
26964;DHT22;14521;48.148;-1.656;2023-07-20T00:39:42;23.50;80.60
26964;DHT22;14521;48.148;-1.656;2023-07-20T00:43:05;23.50;80.50
26964;DHT22;14521;48.148;-1.656;2023-07-20T00:46:27;23.50;80.30
26964;DHT22;14521;48.148;-1.656;2023-07-20T00:49:51;23.50;80.50
26964;DHT22;14521;48.148;-1.656;2023-07-20T00:53:14;23.50;80.70
26964;DHT22;14521;48.148;-1.656;2023-07-20T00:56:36;23.50;80.80
26964;DHT22;14521;48.148;-1.656;2023-07-20T01:00:00;23.50;81.00
26964;DHT22;14521;48.148;-1.656;2023-07-20T01:03:22;23.50;81.10
26964;DHT22;14521;48.148;-1.656;2023-07-20T01:06:51;23.50;81.20
26964;DHT22;14521;48.148;-1.656;2023-07-20T01:10:20;23.50;81.70
26964;DHT22;14521;48.148;-1.656;2023-07-20T01:13:45;23.50;82.40
26964;DHT22;14521;48.148;-1.656;2023-07-20T01:17:07;23.50;82.70
26964;DHT22;14521;48.148;-1.656;2023-07-20T01:20:32;23.50;82.90
26964;DHT22;14521;48.148;-1.656;2023-07-20T01:31:25;23.40;82.70
26964;DHT22;14521;48.148;-1.656;2023-07-20T01:34:52;23.40;82.60
26964;DHT22;14521;48.148;-1.656;2023-07-20T01:38:16;23.40;82.40
26964;DHT22;14521;48.148;-1.656;2023-07-20T01:41:40;23.40;82.50
26964;DHT22;14521;48.148;-1.656;2023-07-20T01:45:02;23.40;82.60
26964;DHT22;14521;48.148;-1.656;2023-07-20T01:48:25;23.40;82.60
26964;DHT22;14521;48.148;-1.656;2023-07-20T01:51:47;23.40;82.70
26964;DHT22;14521;48.148;-1.656;2023-07-20T01:55:11;23.50;82.90
26964;DHT22;14521;48.148;-1.656;2023-07-20T01:58:33;23.40;82.60
26964;DHT22;14521;48.148;-1.656;2023-07-20T02:01:56;23.40;82.60
26964;DHT22;14521;48.148;-1.656;2023-07-20T02:05:18;23.40;82.80
26964;DHT22;14521;48.148;-1.656;2023-07-20T02:08:43;23.40;82.90
26964;DHT22;14521;48.148;-1.656;2023-07-20T02:12:05;23.40;83.20
26964;DHT22;14521;48.148;-1.656;2023-07-20T02:15:28;23.40;83.30
26964;DHT22;14521;48.148;-1.656;2023-07-20T02:18:50;23.40;83.00
26964;DHT22;14521;48.148;-1.656;2023-07-20T02:22:13;23.40;82.90
26964;DHT22;14521;48.148;-1.656;2023-07-20T02:25:35;23.40;83.00
26964;DHT22;14521;48.148;-1.656;2023-07-20T02:28:57;23.40;82.90
26964;DHT22;14521;48.148;-1.656;2023-07-20T02:32:19;23.30;82.90
26964;DHT22;14521;48.148;-1.656;2023-07-20T02:35:42;23.30;82.80
26964;DHT22;14521;48.148;-1.656;2023-07-20T02:39:05;23.30;82.70
26964;DHT22;14521;48.148;-1.656;2023-07-20T02:42:28;23.30;82.90
26964;DHT22;14521;48.148;-1.656;2023-07-20T02:45:51;23.40;82.90
26964;DHT22;14521;48.148;-1.656;2023-07-20T02:49:13;23.30;82.70
26964;DHT22;14521;48.148;-1.656;2023-07-20T02:52:36;23.30;82.60
26964;DHT22;14521;48.148;-1.656;2023-07-20T02:55:58;23.30;82.60
26964;DHT22;14521;48.148;-1.656;2023-07-20T02:59:20;23.30;83.70
26964;DHT22;14521;48.148;-1.656;2023-07-20T03:02:42;23.40;83.10
26964;DHT22;14521;48.148;-1.656;2023-07-20T03:06:05;23.30;83.00
26964;DHT22;14521;48.148;-1.656;2023-07-20T03:09:28;23.40;83.20
26964;DHT22;14521;48.148;-1.656;2023-07-20T03:12:51;23.40;83.30
26964;DHT22;14521;48.148;-1.656;2023-07-20T03:16:15;23.40;83.20
26964;DHT22;14521;48.148;-1.656;2023-07-20T03:19:39;23.30;83.20
26964;DHT22;14521;48.148;-1.656;2023-07-20T03:23:02;23.40;83.30
26964;DHT22;14521;48.148;-1.656;2023-07-20T03:26:25;23.40;83.40
26964;DHT22;14521;48.148;-1.656;2023-07-20T03:29:48;23.40;83.20
26964;DHT22;14521;48.148;-1.656;2023-07-20T03:33:11;23.30;83.40
26964;DHT22;14521;48.148;-1.656;2023-07-20T03:36:33;23.30;83.40
26964;DHT22;14521;48.148;-1.656;2023-07-20T03:39:55;23.30;83.50
26964;DHT22;14521;48.148;-1.656;2023-07-20T03:43:18;23.30;83.50
26964;DHT22;14521;48.148;-1.656;2023-07-20T03:46:41;23.30;83.60
26964;DHT22;14521;48.148;-1.656;2023-07-20T03:50:03;23.30;83.50
26964;DHT22;14521;48.148;-1.656;2023-07-20T03:53:27;23.30;83.50
26964;DHT22;14521;48.148;-1.656;2023-07-20T03:56:50;23.20;82.80
26964;DHT22;14521;48.148;-1.656;2023-07-20T04:00:13;23.20;82.40
26964;DHT22;14521;48.148;-1.656;2023-07-20T04:03:36;23.20;82.30
26964;DHT22;14521;48.148;-1.656;2023-07-20T04:06:59;23.20;82.50
26964;DHT22;14521;48.148;-1.656;2023-07-20T04:10:21;23.20;82.70
26964;DHT22;14521;48.148;-1.656;2023-07-20T04:13:47;23.20;82.90
26964;DHT22;14521;48.148;-1.656;2023-07-20T04:17:09;23.20;82.80
26964;DHT22;14521;48.148;-1.656;2023-07-20T04:20:35;23.20;82.90
26964;DHT22;14521;48.148;-1.656;2023-07-20T04:23:57;23.20;83.00
26964;DHT22;14521;48.148;-1.656;2023-07-20T04:27:20;23.20;83.10
26964;DHT22;14521;48.148;-1.656;2023-07-20T04:30:42;23.20;83.30
26964;DHT22;14521;48.148;-1.656;2023-07-20T04:34:05;23.20;83.30
26964;DHT22;14521;48.148;-1.656;2023-07-20T04:37:29;23.20;83.20
26964;DHT22;14521;48.148;-1.656;2023-07-20T04:40:54;23.20;83.30
26964;DHT22;14521;48.148;-1.656;2023-07-20T04:44:16;23.20;83.20
26964;DHT22;14521;48.148;-1.656;2023-07-20T04:47:38;23.20;83.30
26964;DHT22;14521;48.148;-1.656;2023-07-20T04:51:01;23.20;83.30
26964;DHT22;14521;48.148;-1.656;2023-07-20T04:54:23;23.20;83.30
26964;DHT22;14521;48.148;-1.656;2023-07-20T04:57:46;23.20;83.40
26964;DHT22;14521;48.148;-1.656;2023-07-20T05:01:08;23.20;83.40
26964;DHT22;14521;48.148;-1.656;2023-07-20T05:04:31;23.20;83.40
26964;DHT22;14521;48.148;-1.656;2023-07-20T05:08:00;23.20;83.40
26964;DHT22;14521;48.148;-1.656;2023-07-20T05:11:22;23.20;83.40
26964;DHT22;14521;48.148;-1.656;2023-07-20T05:14:45;23.20;83.30
26964;DHT22;14521;48.148;-1.656;2023-07-20T05:18:07;23.20;83.30
26964;DHT22;14521;48.148;-1.656;2023-07-20T05:21:30;23.20;83.30
26964;DHT22;14521;48.148;-1.656;2023-07-20T05:24:52;23.20;83.30
26964;DHT22;14521;48.148;-1.656;2023-07-20T05:28:14;23.30;83.40
26964;DHT22;14521;48.148;-1.656;2023-07-20T05:31:37;23.30;83.30
26964;DHT22;14521;48.148;-1.656;2023-07-20T05:34:59;23.30;83.40
26964;DHT22;14521;48.148;-1.656;2023-07-20T05:38:21;23.20;83.30
26964;DHT22;14521;48.148;-1.656;2023-07-20T05:41:44;23.10;84.10
26964;DHT22;14521;48.148;-1.656;2023-07-20T05:45:06;23.00;84.50
26964;DHT22;14521;48.148;-1.656;2023-07-20T05:48:29;22.90;85.00
26964;DHT22;14521;48.148;-1.656;2023-07-20T05:51:51;22.90;85.30
26964;DHT22;14521;48.148;-1.656;2023-07-20T05:55:14;22.90;85.20
26964;DHT22;14521;48.148;-1.656;2023-07-20T05:58:36;22.80;85.40
26964;DHT22;14521;48.148;-1.656;2023-07-20T06:01:59;22.90;85.70
26964;DHT22;14521;48.148;-1.656;2023-07-20T06:05:22;22.90;85.70
26964;DHT22;14521;48.148;-1.656;2023-07-20T06:08:49;22.60;86.50
26964;DHT22;14521;48.148;-1.656;2023-07-20T06:12:12;22.50;87.40
26964;DHT22;14521;48.148;-1.656;2023-07-20T06:15:34;22.50;87.90
26964;DHT22;14521;48.148;-1.656;2023-07-20T06:18:58;22.60;88.00
26964;DHT22;14521;48.148;-1.656;2023-07-20T06:22:20;22.70;87.80
26964;DHT22;14521;48.148;-1.656;2023-07-20T06:25:42;22.60;87.80
26964;DHT22;14521;48.148;-1.656;2023-07-20T06:29:05;22.40;88.40
26964;DHT22;14521;48.148;-1.656;2023-07-20T06:32:28;22.30;89.40
26964;DHT22;14521;48.148;-1.656;2023-07-20T06:35:50;22.30;89.50
26964;DHT22;14521;48.148;-1.656;2023-07-20T06:39:14;22.10;90.10
26964;DHT22;14521;48.148;-1.656;2023-07-20T06:42:39;22.10;90.30
26964;DHT22;14521;48.148;-1.656;2023-07-20T06:46:04;22.10;90.50
26964;DHT22;14521;48.148;-1.656;2023-07-20T06:49:27;22.30;90.30
26964;DHT22;14521;48.148;-1.656;2023-07-20T06:52:50;22.20;90.30
26964;DHT22;14521;48.148;-1.656;2023-07-20T06:56:12;22.00;91.00
26964;DHT22;14521;48.148;-1.656;2023-07-20T06:59:34;22.00;90.80
26964;DHT22;14521;48.148;-1.656;2023-07-20T07:03:02;22.10;90.90
26964;DHT22;14521;48.148;-1.656;2023-07-20T07:06:25;22.00;91.10
26964;DHT22;14521;48.148;-1.656;2023-07-20T07:09:50;22.10;91.20
26964;DHT22;14521;48.148;-1.656;2023-07-20T07:13:12;22.20;91.20
26964;DHT22;14521;48.148;-1.656;2023-07-20T07:16:35;22.50;90.80
26964;DHT22;14521;48.148;-1.656;2023-07-20T07:20:00;22.70;90.50
26964;DHT22;14521;48.148;-1.656;2023-07-20T07:23:22;22.80;90.20
26964;DHT22;14521;48.148;-1.656;2023-07-20T07:26:45;22.80;90.30
26964;DHT22;14521;48.148;-1.656;2023-07-20T07:30:07;22.90;90.00
26964;DHT22;14521;48.148;-1.656;2023-07-20T07:33:30;23.00;89.70
26964;DHT22;14521;48.148;-1.656;2023-07-20T07:36:52;23.10;90.00
26964;DHT22;14521;48.148;-1.656;2023-07-20T07:40:14;23.20;89.40
26964;DHT22;14521;48.148;-1.656;2023-07-20T07:43:37;23.00;90.00
26964;DHT22;14521;48.148;-1.656;2023-07-20T07:47:00;23.00;90.20
26964;DHT22;14521;48.148;-1.656;2023-07-20T07:50:23;23.00;90.20
26964;DHT22;14521;48.148;-1.656;2023-07-20T07:53:46;23.00;90.10
26964;DHT22;14521;48.148;-1.656;2023-07-20T07:57:08;23.00;90.00
26964;DHT22;14521;48.148;-1.656;2023-07-20T08:00:31;23.00;90.00
26964;DHT22;14521;48.148;-1.656;2023-07-20T08:03:53;23.00;89.90
26964;DHT22;14521;48.148;-1.656;2023-07-20T08:07:15;23.00;89.90
26964;DHT22;14521;48.148;-1.656;2023-07-20T08:10:38;22.90;90.00
26964;DHT22;14521;48.148;-1.656;2023-07-20T08:14:00;22.60;90.60
26964;DHT22;14521;48.148;-1.656;2023-07-20T08:17:23;22.60;90.90
26964;DHT22;14521;48.148;-1.656;2023-07-20T08:20:45;22.60;91.00
26964;DHT22;14521;48.148;-1.656;2023-07-20T08:24:08;22.80;90.70
26964;DHT22;14521;48.148;-1.656;2023-07-20T08:27:30;22.90;90.30
26964;DHT22;14521;48.148;-1.656;2023-07-20T08:30:52;22.70;90.50
26964;DHT22;14521;48.148;-1.656;2023-07-20T08:34:15;22.70;90.50
26964;DHT22;14521;48.148;-1.656;2023-07-20T08:37:52;22.90;90.30
26964;DHT22;14521;48.148;-1.656;2023-07-20T08:41:14;23.10;89.80
26964;DHT22;14521;48.148;-1.656;2023-07-20T08:44:38;23.30;90.10
26964;DHT22;14521;48.148;-1.656;2023-07-20T08:48:01;23.40;89.30
26964;DHT22;14521;48.148;-1.656;2023-07-20T08:51:27;23.50;88.10
26964;DHT22;14521;48.148;-1.656;2023-07-20T08:54:51;23.50;88.90
26964;DHT22;14521;48.148;-1.656;2023-07-20T08:58:15;23.70;88.30
26964;DHT22;14521;48.148;-1.656;2023-07-20T09:01:39;23.70;87.80
26964;DHT22;14521;48.148;-1.656;2023-07-20T09:05:02;23.80;89.40
26964;DHT22;14521;48.148;-1.656;2023-07-20T09:08:24;23.90;86.90
26964;DHT22;14521;48.148;-1.656;2023-07-20T09:11:48;23.90;87.60
26964;DHT22;14521;48.148;-1.656;2023-07-20T09:15:12;23.90;86.60
26964;DHT22;14521;48.148;-1.656;2023-07-20T09:18:35;23.90;86.60
26964;DHT22;14521;48.148;-1.656;2023-07-20T09:21:57;23.90;87.70
26964;DHT22;14521;48.148;-1.656;2023-07-20T09:25:20;23.90;83.40
26964;DHT22;14521;48.148;-1.656;2023-07-20T09:28:49;24.00;84.70
26964;DHT22;14521;48.148;-1.656;2023-07-20T09:32:12;23.90;83.80
26964;DHT22;14521;48.148;-1.656;2023-07-20T09:35:46;23.80;84.10
26964;DHT22;14521;48.148;-1.656;2023-07-20T09:39:16;23.80;86.30
26964;DHT22;14521;48.148;-1.656;2023-07-20T09:42:52;23.90;84.40
26964;DHT22;14521;48.148;-1.656;2023-07-20T09:46:18;23.90;81.80
26964;DHT22;14521;48.148;-1.656;2023-07-20T09:49:45;23.80;84.60
26964;DHT22;14521;48.148;-1.656;2023-07-20T09:53:13;23.90;84.40
26964;DHT22;14521;48.148;-1.656;2023-07-20T09:56:36;24.00;81.60
26964;DHT22;14521;48.148;-1.656;2023-07-20T10:00:00;24.00;82.10
26964;DHT22;14521;48.148;-1.656;2023-07-20T10:03:29;24.00;80.10
26964;DHT22;14521;48.148;-1.656;2023-07-20T10:06:58;24.10;79.90
26964;DHT22;14521;48.148;-1.656;2023-07-20T10:10:21;24.10;80.60
26964;DHT22;14521;48.148;-1.656;2023-07-20T10:13:44;24.10;81.50
26964;DHT22;14521;48.148;-1.656;2023-07-20T10:17:11;24.20;81.20
26964;DHT22;14521;48.148;-1.656;2023-07-20T10:20:36;24.20;79.90
26964;DHT22;14521;48.148;-1.656;2023-07-20T10:23:59;24.10;80.60
26964;DHT22;14521;48.148;-1.656;2023-07-20T10:27:23;24.20;79.20
26964;DHT22;14521;48.148;-1.656;2023-07-20T10:30:46;24.10;80.10
26964;DHT22;14521;48.148;-1.656;2023-07-20T10:34:09;24.20;80.30
26964;DHT22;14521;48.148;-1.656;2023-07-20T10:41:17;24.10;80.70
26964;DHT22;14521;48.148;-1.656;2023-07-20T10:44:41;24.20;79.60
26964;DHT22;14521;48.148;-1.656;2023-07-20T10:48:05;24.20;78.10
26964;DHT22;14521;48.148;-1.656;2023-07-20T10:51:28;24.20;79.30
26964;DHT22;14521;48.148;-1.656;2023-07-20T10:54:50;24.20;79.10
26964;DHT22;14521;48.148;-1.656;2023-07-20T10:58:14;24.30;79.10
26964;DHT22;14521;48.148;-1.656;2023-07-20T11:01:42;24.20;79.60
26964;DHT22;14521;48.148;-1.656;2023-07-20T11:05:06;24.30;78.50
26964;DHT22;14521;48.148;-1.656;2023-07-20T11:08:42;24.20;77.50
26964;DHT22;14521;48.148;-1.656;2023-07-20T11:12:15;24.10;77.50
26964;DHT22;14521;48.148;-1.656;2023-07-20T11:15:45;24.20;77.80
26964;DHT22;14521;48.148;-1.656;2023-07-20T11:19:26;24.20;81.50
26964;DHT22;14521;48.148;-1.656;2023-07-20T11:22:51;24.20;80.60
26964;DHT22;14521;48.148;-1.656;2023-07-20T11:26:16;24.30;80.80
26964;DHT22;14521;48.148;-1.656;2023-07-20T11:29:38;24.30;80.10
26964;DHT22;14521;48.148;-1.656;2023-07-20T11:33:01;24.30;79.40
26964;DHT22;14521;48.148;-1.656;2023-07-20T11:36:24;24.30;77.30
26964;DHT22;14521;48.148;-1.656;2023-07-20T11:39:49;24.30;76.60
26964;DHT22;14521;48.148;-1.656;2023-07-20T11:43:17;24.30;76.00
26964;DHT22;14521;48.148;-1.656;2023-07-20T11:46:42;24.20;76.40
26964;DHT22;14521;48.148;-1.656;2023-07-20T11:50:05;24.30;74.60
26964;DHT22;14521;48.148;-1.656;2023-07-20T11:53:28;24.30;75.70
26964;DHT22;14521;48.148;-1.656;2023-07-20T11:56:54;24.30;77.20
26964;DHT22;14521;48.148;-1.656;2023-07-20T12:00:18;24.30;77.40
26964;DHT22;14521;48.148;-1.656;2023-07-20T12:03:42;24.30;74.40
26964;DHT22;14521;48.148;-1.656;2023-07-20T12:07:07;24.30;74.70
26964;DHT22;14521;48.148;-1.656;2023-07-20T12:10:29;24.30;75.40
26964;DHT22;14521;48.148;-1.656;2023-07-20T12:13:52;24.40;74.70
26964;DHT22;14521;48.148;-1.656;2023-07-20T12:17:42;24.40;74.40
26964;DHT22;14521;48.148;-1.656;2023-07-20T12:21:06;24.30;75.00
26964;DHT22;14521;48.148;-1.656;2023-07-20T12:24:30;24.40;76.10
26964;DHT22;14521;48.148;-1.656;2023-07-20T12:27:52;24.40;75.90
26964;DHT22;14521;48.148;-1.656;2023-07-20T12:31:17;24.40;75.20
26964;DHT22;14521;48.148;-1.656;2023-07-20T12:34:40;24.40;75.30
26964;DHT22;14521;48.148;-1.656;2023-07-20T12:38:02;24.40;73.70
26964;DHT22;14521;48.148;-1.656;2023-07-20T12:41:24;24.30;73.60
26964;DHT22;14521;48.148;-1.656;2023-07-20T12:44:48;24.30;74.50
26964;DHT22;14521;48.148;-1.656;2023-07-20T12:48:11;24.30;76.00
26964;DHT22;14521;48.148;-1.656;2023-07-20T12:51:33;24.40;75.60
26964;DHT22;14521;48.148;-1.656;2023-07-20T12:54:55;24.40;74.80
26964;DHT22;14521;48.148;-1.656;2023-07-20T12:58:17;24.40;74.10
26964;DHT22;14521;48.148;-1.656;2023-07-20T13:01:40;24.30;71.30
26964;DHT22;14521;48.148;-1.656;2023-07-20T13:05:03;24.20;71.40
26964;DHT22;14521;48.148;-1.656;2023-07-20T13:08:26;24.20;73.70
26964;DHT22;14521;48.148;-1.656;2023-07-20T13:11:49;24.30;72.60
26964;DHT22;14521;48.148;-1.656;2023-07-20T13:15:11;24.40;74.70
26964;DHT22;14521;48.148;-1.656;2023-07-20T13:18:33;24.30;73.90
26964;DHT22;14521;48.148;-1.656;2023-07-20T13:21:55;24.40;73.30
26964;DHT22;14521;48.148;-1.656;2023-07-20T13:25:18;24.40;74.80
26964;DHT22;14521;48.148;-1.656;2023-07-20T13:28:43;24.40;74.80
26964;DHT22;14521;48.148;-1.656;2023-07-20T13:32:06;24.50;73.20
26964;DHT22;14521;48.148;-1.656;2023-07-20T13:35:29;24.40;75.10
26964;DHT22;14521;48.148;-1.656;2023-07-20T13:39:10;24.40;74.30
26964;DHT22;14521;48.148;-1.656;2023-07-20T13:42:32;24.50;73.70
26964;DHT22;14521;48.148;-1.656;2023-07-20T13:45:54;24.40;72.60
26964;DHT22;14521;48.148;-1.656;2023-07-20T13:49:17;24.40;71.60
26964;DHT22;14521;48.148;-1.656;2023-07-20T13:52:44;24.50;73.80
26964;DHT22;14521;48.148;-1.656;2023-07-20T13:56:07;24.50;73.80
26964;DHT22;14521;48.148;-1.656;2023-07-20T13:59:32;24.50;75.40
26964;DHT22;14521;48.148;-1.656;2023-07-20T14:02:54;24.50;75.40
26964;DHT22;14521;48.148;-1.656;2023-07-20T14:06:19;24.60;75.50
26964;DHT22;14521;48.148;-1.656;2023-07-20T14:09:45;24.60;75.80
26964;DHT22;14521;48.148;-1.656;2023-07-20T14:13:11;24.60;76.30
26964;DHT22;14521;48.148;-1.656;2023-07-20T14:16:33;24.60;77.10
26964;DHT22;14521;48.148;-1.656;2023-07-20T14:19:56;24.60;77.70
26964;DHT22;14521;48.148;-1.656;2023-07-20T14:23:18;24.60;78.20
26964;DHT22;14521;48.148;-1.656;2023-07-20T14:26:40;24.60;78.10
26964;DHT22;14521;48.148;-1.656;2023-07-20T14:30:05;24.60;78.40
26964;DHT22;14521;48.148;-1.656;2023-07-20T14:33:27;24.60;77.80
26964;DHT22;14521;48.148;-1.656;2023-07-20T14:36:50;24.60;78.40
26964;DHT22;14521;48.148;-1.656;2023-07-20T14:40:13;24.60;78.50
26964;DHT22;14521;48.148;-1.656;2023-07-20T14:43:36;24.50;78.90
26964;DHT22;14521;48.148;-1.656;2023-07-20T14:46:59;24.50;79.40
26964;DHT22;14521;48.148;-1.656;2023-07-20T14:50:35;24.50;79.40
26964;DHT22;14521;48.148;-1.656;2023-07-20T14:53:57;24.50;79.20
26964;DHT22;14521;48.148;-1.656;2023-07-20T14:57:20;24.60;79.60
26964;DHT22;14521;48.148;-1.656;2023-07-20T15:00:45;24.60;79.50
26964;DHT22;14521;48.148;-1.656;2023-07-20T15:04:08;24.60;80.90
26964;DHT22;14521;48.148;-1.656;2023-07-20T15:07:30;24.60;80.00
26964;DHT22;14521;48.148;-1.656;2023-07-20T15:10:52;24.60;80.00
26964;DHT22;14521;48.148;-1.656;2023-07-20T15:14:14;24.60;80.00
26964;DHT22;14521;48.148;-1.656;2023-07-20T15:17:38;24.60;80.40
26964;DHT22;14521;48.148;-1.656;2023-07-20T15:21:00;24.60;80.20
26964;DHT22;14521;48.148;-1.656;2023-07-20T15:24:23;24.50;80.20
26964;DHT22;14521;48.148;-1.656;2023-07-20T15:27:45;24.50;80.10
26964;DHT22;14521;48.148;-1.656;2023-07-20T15:31:12;24.50;80.30
26964;DHT22;14521;48.148;-1.656;2023-07-20T15:34:34;24.50;80.10
26964;DHT22;14521;48.148;-1.656;2023-07-20T15:37:57;24.60;80.30
26964;DHT22;14521;48.148;-1.656;2023-07-20T15:41:21;24.60;80.00
26964;DHT22;14521;48.148;-1.656;2023-07-20T15:44:47;24.60;79.50
26964;DHT22;14521;48.148;-1.656;2023-07-20T15:48:09;24.60;80.00
26964;DHT22;14521;48.148;-1.656;2023-07-20T15:51:34;24.60;80.20
26964;DHT22;14521;48.148;-1.656;2023-07-20T15:54:58;24.60;79.70
26964;DHT22;14521;48.148;-1.656;2023-07-20T15:58:20;24.60;80.00
26964;DHT22;14521;48.148;-1.656;2023-07-20T16:01:43;24.60;80.00
26964;DHT22;14521;48.148;-1.656;2023-07-20T16:05:07;24.60;80.00
26964;DHT22;14521;48.148;-1.656;2023-07-20T16:08:33;24.60;80.70
26964;DHT22;14521;48.148;-1.656;2023-07-20T16:11:55;24.60;80.00
26964;DHT22;14521;48.148;-1.656;2023-07-20T16:15:18;24.50;80.00
26964;DHT22;14521;48.148;-1.656;2023-07-20T16:18:43;24.50;80.20
26964;DHT22;14521;48.148;-1.656;2023-07-20T16:22:06;24.50;80.40
26964;DHT22;14521;48.148;-1.656;2023-07-20T16:25:28;24.50;80.10
26964;DHT22;14521;48.148;-1.656;2023-07-20T16:28:50;24.50;79.70
26964;DHT22;14521;48.148;-1.656;2023-07-20T16:32:13;24.50;79.60
26964;DHT22;14521;48.148;-1.656;2023-07-20T16:35:37;24.50;79.20
26964;DHT22;14521;48.148;-1.656;2023-07-20T16:39:02;24.50;79.40
26964;DHT22;14521;48.148;-1.656;2023-07-20T16:42:28;24.50;79.20
26964;DHT22;14521;48.148;-1.656;2023-07-20T16:45:59;24.50;79.10
26964;DHT22;14521;48.148;-1.656;2023-07-20T16:49:22;24.50;79.10
26964;DHT22;14521;48.148;-1.656;2023-07-20T16:52:44;24.40;79.00
26964;DHT22;14521;48.148;-1.656;2023-07-20T16:56:07;24.40;79.10
26964;DHT22;14521;48.148;-1.656;2023-07-20T16:59:29;24.40;80.00
26964;DHT22;14521;48.148;-1.656;2023-07-20T17:02:51;24.40;79.90
26964;DHT22;14521;48.148;-1.656;2023-07-20T17:06:13;24.30;80.60
26964;DHT22;14521;48.148;-1.656;2023-07-20T17:09:36;24.30;80.60
26964;DHT22;14521;48.148;-1.656;2023-07-20T17:12:58;24.20;81.20
26964;DHT22;14521;48.148;-1.656;2023-07-20T17:16:21;23.90;81.10
26964;DHT22;14521;48.148;-1.656;2023-07-20T17:19:43;23.70;81.70
26964;DHT22;14521;48.148;-1.656;2023-07-20T17:23:05;23.80;82.00
26964;DHT22;14521;48.148;-1.656;2023-07-20T17:26:28;23.70;82.30
26964;DHT22;14521;48.148;-1.656;2023-07-20T17:29:53;23.60;83.40
26964;DHT22;14521;48.148;-1.656;2023-07-20T17:33:16;23.70;83.10
26964;DHT22;14521;48.148;-1.656;2023-07-20T17:36:39;23.60;82.60
26964;DHT22;14521;48.148;-1.656;2023-07-20T17:40:08;23.50;82.10
26964;DHT22;14521;48.148;-1.656;2023-07-20T17:43:36;23.50;82.20
26964;DHT22;14521;48.148;-1.656;2023-07-20T17:46:58;23.50;82.40
26964;DHT22;14521;48.148;-1.656;2023-07-20T17:50:23;23.50;81.70
26964;DHT22;14521;48.148;-1.656;2023-07-20T17:53:48;23.40;82.10
26964;DHT22;14521;48.148;-1.656;2023-07-20T17:57:10;23.40;82.50
26964;DHT22;14521;48.148;-1.656;2023-07-20T18:00:33;23.40;82.90
26964;DHT22;14521;48.148;-1.656;2023-07-20T18:03:58;23.40;82.60
26964;DHT22;14521;48.148;-1.656;2023-07-20T18:07:20;23.30;82.90
26964;DHT22;14521;48.148;-1.656;2023-07-20T18:10:42;23.40;83.10
26964;DHT22;14521;48.148;-1.656;2023-07-20T18:14:04;23.50;82.90
26964;DHT22;14521;48.148;-1.656;2023-07-20T18:17:27;23.40;83.10
26964;DHT22;14521;48.148;-1.656;2023-07-20T18:20:51;23.40;83.30
26964;DHT22;14521;48.148;-1.656;2023-07-20T18:24:13;23.50;83.70
26964;DHT22;14521;48.148;-1.656;2023-07-20T18:27:35;23.50;83.70
26964;DHT22;14521;48.148;-1.656;2023-07-20T18:31:04;23.40;82.00
26964;DHT22;14521;48.148;-1.656;2023-07-20T18:34:26;23.40;81.40
26964;DHT22;14521;48.148;-1.656;2023-07-20T18:37:48;23.40;80.80
26964;DHT22;14521;48.148;-1.656;2023-07-20T18:41:12;23.30;80.80
26964;DHT22;14521;48.148;-1.656;2023-07-20T18:44:34;23.30;81.60
26964;DHT22;14521;48.148;-1.656;2023-07-20T18:47:56;23.20;81.10
26964;DHT22;14521;48.148;-1.656;2023-07-20T18:51:22;23.20;80.70
26964;DHT22;14521;48.148;-1.656;2023-07-20T18:54:44;23.10;80.90
26964;DHT22;14521;48.148;-1.656;2023-07-20T18:58:07;23.10;80.70
26964;DHT22;14521;48.148;-1.656;2023-07-20T19:01:29;23.00;80.80
26964;DHT22;14521;48.148;-1.656;2023-07-20T19:04:51;23.10;80.60
26964;DHT22;14521;48.148;-1.656;2023-07-20T19:08:14;23.10;80.70
26964;DHT22;14521;48.148;-1.656;2023-07-20T19:11:36;23.20;80.20
26964;DHT22;14521;48.148;-1.656;2023-07-20T19:15:01;23.40;80.30
26964;DHT22;14521;48.148;-1.656;2023-07-20T19:18:24;23.40;80.30
26964;DHT22;14521;48.148;-1.656;2023-07-20T19:21:48;23.20;82.30
26964;DHT22;14521;48.148;-1.656;2023-07-20T19:25:11;22.90;84.40
26964;DHT22;14521;48.148;-1.656;2023-07-20T19:28:34;22.80;85.50
26964;DHT22;14521;48.148;-1.656;2023-07-20T19:31:57;22.60;87.10
26964;DHT22;14521;48.148;-1.656;2023-07-20T19:35:20;22.60;87.30
26964;DHT22;14521;48.148;-1.656;2023-07-20T19:38:42;22.50;88.70
26964;DHT22;14521;48.148;-1.656;2023-07-20T19:42:04;22.50;89.50
26964;DHT22;14521;48.148;-1.656;2023-07-20T19:45:27;22.40;89.70
26964;DHT22;14521;48.148;-1.656;2023-07-20T19:48:50;22.40;90.20
26964;DHT22;14521;48.148;-1.656;2023-07-20T19:52:12;22.40;90.10
26964;DHT22;14521;48.148;-1.656;2023-07-20T19:55:36;22.60;90.20
26964;DHT22;14521;48.148;-1.656;2023-07-20T19:58:59;22.70;90.20
26964;DHT22;14521;48.148;-1.656;2023-07-20T20:02:21;22.70;90.20
26964;DHT22;14521;48.148;-1.656;2023-07-20T20:05:43;22.70;90.40
26964;DHT22;14521;48.148;-1.656;2023-07-20T20:09:06;22.70;90.80
26964;DHT22;14521;48.148;-1.656;2023-07-20T20:12:28;22.70;90.80
26964;DHT22;14521;48.148;-1.656;2023-07-20T20:15:50;22.70;91.20
26964;DHT22;14521;48.148;-1.656;2023-07-20T20:19:13;22.60;91.00
26964;DHT22;14521;48.148;-1.656;2023-07-20T20:22:35;22.60;91.30
26964;DHT22;14521;48.148;-1.656;2023-07-20T20:25:59;22.50;91.80
26964;DHT22;14521;48.148;-1.656;2023-07-20T20:29:21;22.20;92.20
26964;DHT22;14521;48.148;-1.656;2023-07-20T20:32:43;22.10;92.70
26964;DHT22;14521;48.148;-1.656;2023-07-20T20:36:06;22.00;92.90
26964;DHT22;14521;48.148;-1.656;2023-07-20T20:39:28;22.10;93.00
26964;DHT22;14521;48.148;-1.656;2023-07-20T20:42:51;22.30;92.50
26964;DHT22;14521;48.148;-1.656;2023-07-20T20:46:13;22.40;92.10
26964;DHT22;14521;48.148;-1.656;2023-07-20T20:49:43;22.60;92.00
26964;DHT22;14521;48.148;-1.656;2023-07-20T20:53:08;22.70;91.80
26964;DHT22;14521;48.148;-1.656;2023-07-20T20:56:31;22.70;91.40
26964;DHT22;14521;48.148;-1.656;2023-07-20T20:59:54;22.70;91.30
26964;DHT22;14521;48.148;-1.656;2023-07-20T21:03:16;22.80;91.10
26964;DHT22;14521;48.148;-1.656;2023-07-20T21:06:38;22.80;90.60
26964;DHT22;14521;48.148;-1.656;2023-07-20T21:10:01;22.90;90.50
26964;DHT22;14521;48.148;-1.656;2023-07-20T21:13:23;22.90;90.40
26964;DHT22;14521;48.148;-1.656;2023-07-20T21:16:45;22.90;90.40